Time;durP1;ratioP1;P1;durP2;ratioP2;P2;SDS_P1;SDS_P2;PMS_P1;PMS_P2;Temp;Humidity;BMP_temperature;BMP_pressure;BME280_temperature;BME280_humidity;BME280_pressure;Samples;Min_cycle;Max_cycle;Signal;HPM_P1;HPM_P2
2023/01/21 00:01:15;;;;;;;18.48;7.88;;;;;;;1.93;72.21;100577.03;5069096;28;20317;-47
2023/01/21 00:03:41;;;;;;;20.58;7.13;;;;;;;2.03;71.76;100602.81;5069782;28;20075;-47
2023/01/21 00:06:07;;;;;;;21.33;8.70;;;;;;;1.64;71.35;100544.09;5070720;28;20036;-48
2023/01/21 00:08:33;;;;;;;15.65;6.72;;;;;;;2.01;71.23;100607.06;5080289;28;20096;-45
2023/01/21 00:11:06;;;;;;;19.27;7.03;;;;;;;1.97;71.22;100607.84;5090637;28;20461;-45
2023/01/21 00:13:34;;;;;;;16.08;7.10;;;;;;;1.96;71.17;100606.13;5077742;28;20148;-52
2023/01/21 00:15:59;;;;;;;19.02;7.20;;;;;;;1.94;71.15;100612.91;5069298;28;20033;-46
2023/01/21 00:18:25;;;;;;;20.13;7.30;;;;;;;1.92;70.74;100614.63;5069449;28;20046;-51
2023/01/21 00:20:51;;;;;;;17.67;6.10;;;;;;;1.90;70.70;100620.53;5085522;28;20036;-51
2023/01/21 00:23:18;;;;;;;13.48;6.13;;;;;;;1.85;70.40;100620.47;5090700;28;20047;-48
2023/01/21 00:25:43;;;;;;;20.45;6.28;;;;;;;1.82;70.10;100612.75;5089503;28;20046;-49
2023/01/21 00:28:09;;;;;;;13.95;5.85;;;;;;;1.79;70.16;100612.69;5068755;28;20470;-49
2023/01/21 00:30:35;;;;;;;13.00;5.63;;;;;;;1.75;70.16;100607.47;5070071;28;20040;-48
2023/01/21 00:33:02;;;;;;;13.90;5.93;;;;;;;1.77;69.96;100610.94;5058852;28;20040;-49
2023/01/21 00:35:28;;;;;;;12.77;5.57;;;;;;;1.74;69.82;100616.00;5085691;28;20067;-51
2023/01/21 00:37:54;;;;;;;16.95;5.95;;;;;;;1.74;69.72;100613.44;5073345;28;20056;-48
2023/01/21 00:40:20;;;;;;;11.07;5.28;;;;;;;1.59;69.71;100591.88;5090088;28;20134;-48
2023/01/21 00:42:46;;;;;;;11.15;4.82;;;;;;;1.70;69.48;100621.09;5089214;28;20123;-45
2023/01/21 00:45:12;;;;;;;17.70;5.47;;;;;;;1.71;69.39;100621.97;5068669;28;20134;-47
2023/01/21 00:47:38;;;;;;;13.68;4.97;;;;;;;1.49;68.80;100589.13;5070560;28;20041;-50
2023/01/21 00:50:05;;;;;;;15.57;4.88;;;;;;;1.51;69.08;100595.16;5069258;28;20738;-50
2023/01/21 00:52:30;;;;;;;11.57;5.05;;;;;;;1.65;68.61;100625.28;5069094;28;20091;-49
2023/01/21 00:54:56;;;;;;;14.80;5.50;;;;;;;1.67;68.89;100631.28;5068398;28;20044;-47
2023/01/21 00:57:22;;;;;;;12.30;5.25;;;;;;;1.62;68.88;100622.66;5076964;28;20044;-46
2023/01/21 00:59:48;;;;;;;10.07;4.20;;;;;;;1.60;68.85;100623.47;5082293;28;20127;-49
2023/01/21 01:02:14;;;;;;;15.98;4.65;;;;;;;1.41;68.20;100598.41;5083192;28;20041;-48
2023/01/21 01:04:40;;;;;;;9.93;4.22;;;;;;;1.61;68.56;100628.66;5069510;28;20460;-46
2023/01/21 01:07:06;;;;;;;10.20;4.43;;;;;;;1.62;68.40;100629.50;5068465;28;20043;-49
2023/01/21 01:09:32;;;;;;;10.48;4.28;;;;;;;1.58;68.23;100633.69;5073606;28;20036;-48
2023/01/21 01:11:58;;;;;;;12.68;4.50;;;;;;;1.57;68.01;100636.25;5067953;28;20044;-47
2023/01/21 01:14:24;;;;;;;12.48;3.95;;;;;;;1.57;68.05;100638.81;5068200;28;20511;-48
2023/01/21 01:16:50;;;;;;;12.73;4.10;;;;;;;1.55;67.91;100636.22;5069441;28;20032;-48
2023/01/21 01:19:16;;;;;;;13.93;4.20;;;;;;;1.53;67.66;100639.59;5068313;28;20036;-48
2023/01/21 01:21:42;;;;;;;10.98;4.90;;;;;;;1.52;67.61;100643.84;5050964;28;20045;-50
2023/01/21 01:24:08;;;;;;;14.15;4.45;;;;;;;1.53;67.55;100652.41;5067642;28;20107;-48
2023/01/21 01:26:35;;;;;;;14.20;4.20;;;;;;;1.54;67.40;100656.69;5069184;28;20127;-47
2023/01/21 01:29:02;;;;;;;9.70;4.10;;;;;;;1.47;67.15;100652.28;5073973;28;20051;-47
2023/01/21 01:31:28;;;;;;;11.27;4.10;;;;;;;1.44;67.22;100665.91;5088080;28;20153;-51
2023/01/21 01:33:55;;;;;;;11.23;3.75;;;;;;;1.37;67.02;100660.63;5075884;28;20159;-48
2023/01/21 01:36:23;;;;;;;11.95;4.20;;;;;;;1.41;66.81;100667.56;5068153;28;20050;-46
2023/01/21 01:38:49;;;;;;;13.35;4.35;;;;;;;1.20;67.16;100634.75;5067747;28;20060;-47
2023/01/21 01:41:18;;;;;;;9.82;4.22;;;;;;;1.27;66.78;100654.50;5075220;28;20101;-48
2023/01/21 01:43:59;;;;;;;9.97;3.77;;;;;;;1.37;67.00;100674.31;5083606;28;20032;-48
2023/01/21 01:46:28;;;;;;;12.63;4.10;;;;;;;1.36;66.67;100679.44;5088364;28;20078;-48
2023/01/21 01:49:03;;;;;;;8.00;3.72;;;;;;;1.33;66.53;100675.09;5077305;28;20068;-50
2023/01/21 01:51:33;;;;;;;9.70;3.90;;;;;;;1.34;66.78;100684.53;5075103;28;20143;-47
2023/01/21 01:54:00;;;;;;;14.00;4.60;;;;;;;1.31;66.78;100692.13;5067582;28;20051;-50
2023/01/21 01:56:27;;;;;;;10.30;3.95;;;;;;;1.36;66.40;100693.06;5074749;28;20048;-48
2023/01/21 01:58:53;;;;;;;9.60;3.58;;;;;;;1.37;66.67;100704.19;5067411;28;20041;-49
2023/01/21 02:01:22;;;;;;;13.48;3.55;;;;;;;1.33;66.52;100704.97;5071670;28;20109;-49
2023/01/21 02:03:55;;;;;;;9.80;3.67;;;;;;;1.32;66.46;100700.69;5067299;28;20044;-48
2023/01/21 02:06:21;;;;;;;9.48;3.70;;;;;;;1.31;66.36;100706.66;5067712;28;20817;-49
2023/01/21 02:08:47;;;;;;;11.57;3.80;;;;;;;1.27;65.94;100698.91;5080378;28;20075;-48
2023/01/21 02:11:15;;;;;;;10.65;3.47;;;;;;;1.26;65.91;100703.97;5068501;28;20504;-50
2023/01/21 02:13:48;;;;;;;9.38;3.20;;;;;;;1.27;66.12;100705.72;5084285;28;20040;-48
2023/01/21 02:16:30;;;;;;;9.68;3.78;;;;;;;1.25;65.83;100709.97;5084198;28;20559;-47
2023/01/21 02:19:17;;;;;;;6.43;2.90;;;;;;;1.24;66.01;100716.78;5068533;28;20036;-49
2023/01/21 02:21:51;;;;;;;7.97;3.33;;;;;;;0.98;65.59;100683.81;5068936;28;20131;-47
2023/01/21 02:24:39;;;;;;;8.82;3.20;;;;;;;1.14;65.83;100720.00;5068536;28;20040;-47
2023/01/21 02:27:13;;;;;;;9.50;3.17;;;;;;;1.10;65.14;100725.88;5068737;28;20040;-48
2023/01/21 02:30:01;;;;;;;14.07;3.33;;;;;;;1.03;65.20;100718.91;5085806;28;20043;-48
2023/01/21 02:32:45;;;;;;;9.60;2.97;;;;;;;1.07;65.08;100730.06;5082015;28;20044;-50
2023/01/21 02:35:14;;;;;;;4.45;2.28;;;;;;;1.07;65.17;100725.81;5068496;28;20041;-48
2023/01/21 02:37:58;;;;;;;12.00;3.53;;;;;;;1.04;65.20;100728.31;5067117;28;20079;-46
2023/01/21 02:40:32;;;;;;;9.93;3.00;;;;;;;1.04;65.10;100740.25;5070303;28;20220;-52
2023/01/21 02:42:58;;;;;;;8.52;3.08;;;;;;;1.02;64.78;100729.97;5066932;28;20039;-51
2023/01/21 02:46:05;;;;;;;8.13;3.08;;;;;;;1.03;64.65;100741.09;5072616;28;20055;-51
2023/01/21 02:48:34;;;;;;;9.35;2.58;;;;;;;0.98;64.51;100737.56;5059857;28;20062;-47
2023/01/21 02:51:01;;;;;;;11.38;3.53;;;;;;;1.00;64.34;100747.00;5087280;28;20093;-48
2023/01/21 02:53:29;;;;;;;7.00;2.70;;;;;;;1.00;64.19;100747.00;5072651;28;20109;-49
2023/01/21 02:56:07;;;;;;;7.03;2.80;;;;;;;0.98;64.46;100758.06;5079222;28;20144;-48
2023/01/21 02:58:36;;;;;;;10.77;2.90;;;;;;;0.98;64.07;100752.94;5072084;28;20457;-50
2023/01/21 03:01:52;;;;;;;8.10;2.97;;;;;;;1.02;64.37;100762.41;5080927;28;20036;-48
2023/01/21 03:04:40;;;;;;;12.85;2.80;;;;;;;1.01;64.43;100761.53;5065138;28;20444;-47
2023/01/21 03:07:30;;;;;;;10.35;2.85;;;;;;;1.01;64.06;100768.34;5092034;28;20044;-50
2023/01/21 03:10:00;;;;;;;10.65;2.67;;;;;;;1.01;63.71;100768.34;5073954;28;20055;-48
2023/01/21 03:12:34;;;;;;;7.88;2.60;;;;;;;0.99;63.48;100765.78;5074842;28;20068;-47
2023/01/21 03:18:08;;;;;;;6.32;2.38;;;;;;;1.01;63.52;100765.78;5070423;28;20457;-48
2023/01/21 03:20:39;;;;;;;8.18;2.42;;;;;;;1.00;63.45;100764.91;5071886;28;20101;-48
2023/01/21 03:23:10;;;;;;;9.07;2.90;;;;;;;0.99;63.03;100776.00;5079154;28;20040;-51
2023/01/21 03:25:37;;;;;;;8.40;4.03;;;;;;;0.82;62.89;100733.81;5078537;28;20069;-49
2023/01/21 03:28:07;;;;;;;7.22;2.53;;;;;;;0.99;62.94;100772.59;5089045;28;20046;-46
2023/01/21 03:30:32;;;;;;;;;;;;;;;1.00;62.85;100767.47;5074994;28;20044;-49
2023/01/21 03:32:59;;;;;;;5.68;2.38;;;;;;;0.90;62.51;100774.94;5052556;28;20460;-47
2023/01/21 03:35:32;;;;;;;7.53;2.70;;;;;;;0.88;62.57;100766.38;5053206;28;20044;-49
2023/01/21 03:38:12;;;;;;;7.35;2.53;;;;;;;0.90;62.57;100775.78;5066090;28;20098;-48
2023/01/21 03:40:46;;;;;;;10.40;2.45;;;;;;;0.89;62.30;100779.19;5084049;28;20051;-46
2023/01/21 03:43:11;;;;;;;7.32;2.45;;;;;;;0.85;61.91;100783.38;5071701;28;20116;-50
2023/01/21 03:46:09;;;;;;;9.85;2.90;;;;;;;0.85;62.36;100785.06;5081885;28;20508;-48
2023/01/21 03:48:51;;;;;;;10.48;3.13;;;;;;;0.84;62.12;100779.09;5089944;28;20036;-48
2023/01/21 03:51:41;;;;;;;7.53;2.78;;;;;;;0.84;62.61;100786.75;5091129;28;20080;-48
2023/01/21 03:54:07;;;;;;;10.43;2.95;;;;;;;0.83;62.21;100789.31;5084519;28;20080;-49
2023/01/21 03:56:33;;;;;;;8.02;2.97;;;;;;;0.85;62.16;100787.63;5074118;28;20067;-46
2023/01/21 03:58:58;;;;;;;11.60;3.20;;;;;;;0.90;62.57;100800.53;5069461;28;20075;-48
2023/01/21 04:01:24;;;;;;;8.68;2.33;;;;;;;0.87;62.74;100795.34;5074582;28;20587;-47
2023/01/21 04:03:50;;;;;;;10.35;3.10;;;;;;;0.84;62.71;100794.44;5088477;28;20043;-50
2023/01/21 04:06:18;;;;;;;11.63;3.05;;;;;;;0.84;62.48;100799.56;5088520;28;20679;-47
2023/01/21 04:08:44;;;;;;;11.18;3.10;;;;;;;0.64;62.65;100767.53;5084408;28;20028;-51
2023/01/21 04:11:10;;;;;;;18.98;4.57;;;;;;;0.70;62.87;100787.28;5088088;28;20126;-47
2023/01/21 04:13:36;;;;;;;7.53;2.70;;;;;;;0.77;62.83;100809.66;5079674;28;20044;-48
2023/01/21 04:16:03;;;;;;;11.63;2.65;;;;;;;0.74;62.89;100805.31;5069683;28;20046;-46
2023/01/21 04:18:29;;;;;;;5.68;2.33;;;;;;;0.55;62.71;100792.06;5087228;28;20525;-50
2023/01/21 04:20:54;;;;;;;5.22;2.25;;;;;;;0.50;62.68;100794.50;5090849;28;20075;-46
2023/01/21 04:23:20;;;;;;;7.97;2.55;;;;;;;0.64;62.56;100831.50;5087256;28;20040;-48
2023/01/21 04:25:47;;;;;;;8.18;2.70;;;;;;;0.62;62.26;100832.31;5069758;28;20598;-50
2023/01/21 04:28:14;;;;;;;9.27;2.60;;;;;;;0.60;62.15;100839.09;5086750;28;20046;-50
2023/01/21 04:30:40;;;;;;;11.50;2.85;;;;;;;0.60;62.44;100837.38;5072798;28;20045;-48
2023/01/21 04:33:05;;;;;;;12.00;2.58;;;;;;;0.28;62.32;100790.56;5067984;28;20419;-50
2023/01/21 04:35:34;;;;;;;9.60;3.15;;;;;;;0.42;62.30;100819.88;5068500;28;20048;-48
2023/01/21 04:37:59;;;;;;;6.03;2.28;;;;;;;0.40;62.02;100829.22;5068431;28;20143;-49
2023/01/21 04:40:25;;;;;;;12.10;2.70;;;;;;;0.55;62.09;100850.91;5084230;28;20134;-46
2023/01/21 04:42:51;;;;;;;8.57;2.70;;;;;;;0.34;61.95;100823.09;5081845;28;20040;-50
2023/01/21 04:45:17;;;;;;;8.38;2.50;;;;;;;0.56;61.81;100853.50;5068851;28;20045;-48
2023/01/21 04:47:43;;;;;;;6.97;2.50;;;;;;;0.45;61.95;100842.13;5078095;28;20081;-51
2023/01/21 04:50:11;;;;;;;10.45;2.97;;;;;;;0.51;62.00;100861.88;5088563;28;20048;-55
2023/01/21 04:52:37;;;;;;;7.00;2.42;;;;;;;0.28;61.43;100835.72;5089961;28;20087;-49
2023/01/21 04:55:04;;;;;;;6.18;2.28;;;;;;;0.40;61.55;100859.06;5075022;28;20052;-47
2023/01/21 04:57:30;;;;;;;9.82;2.67;;;;;;;0.19;61.19;100830.38;5081405;28;20176;-50
2023/01/21 04:59:56;;;;;;;9.88;2.85;;;;;;;0.37;61.32;100858.97;5089905;28;20040;-46
2023/01/21 05:02:22;;;;;;;10.63;2.70;;;;;;;0.37;61.57;100864.94;5086743;28;20040;-48
2023/01/21 05:04:47;;;;;;;8.35;2.30;;;;;;;0.36;61.55;100870.91;5087094;28;20419;-49
2023/01/21 05:07:13;;;;;;;8.40;2.38;;;;;;;0.33;61.34;100872.50;5071242;28;20447;-47
2023/01/21 05:09:40;;;;;;;7.68;1.92;;;;;;;0.36;61.85;100881.16;5074035;28;20063;-49
2023/01/21 05:12:06;;;;;;;8.20;2.63;;;;;;;0.29;61.21;100881.81;5098421;28;20039;-49
2023/01/21 05:14:32;;;;;;;10.73;2.20;;;;;;;0.19;61.42;100881.53;5088563;28;20047;-49
2023/01/21 05:16:58;;;;;;;7.43;2.42;;;;;;;0.15;61.58;100884.84;5069308;28;20040;-49
2023/01/21 05:19:24;;;;;;;6.95;2.30;;;;;;;-0.08;61.30;100840.75;5086979;28;20449;-48
2023/01/21 05:21:50;;;;;;;9.30;2.22;;;;;;;0.19;61.45;100894.31;5087059;28;20035;-50
2023/01/21 05:24:16;;;;;;;9.52;2.03;;;;;;;0.19;61.71;100892.63;5088037;28;20043;-52
2023/01/21 05:26:42;;;;;;;10.00;1.92;;;;;;;-0.01;61.14;100869.09;5089354;28;20084;-46
2023/01/21 05:29:08;;;;;;;5.97;2.15;;;;;;;0.09;61.30;100897.44;5088740;28;20032;-47
2023/01/21 05:31:34;;;;;;;11.77;2.65;;;;;;;0.05;61.18;100895.63;5087958;28;20039;-44
2023/01/21 05:33:59;;;;;;;5.85;2.45;;;;;;;-0.16;60.95;100872.91;5075635;28;20036;-49
2023/01/21 05:36:26;;;;;;;6.03;2.20;;;;;;;0.00;61.14;100909.13;5085525;28;20522;-48
2023/01/21 05:38:51;;;;;;;7.70;2.13;;;;;;;0.01;60.98;100902.34;5075136;28;20135;-49
2023/01/21 05:41:18;;;;;;;6.63;1.85;;;;;;;0.00;60.91;100909.13;5069118;28;20554;-48
2023/01/21 05:43:43;;;;;;;5.10;1.95;;;;;;;0.00;61.22;100911.69;5068813;28;20350;-50
2023/01/21 05:46:09;;;;;;;6.15;2.40;;;;;;;-0.20;60.98;100884.72;5078257;28;20047;-50
2023/01/21 05:48:35;;;;;;;6.60;1.98;;;;;;;-0.05;61.18;100920.91;5079339;28;20047;-46
2023/01/21 05:51:01;;;;;;;6.90;2.03;;;;;;;-0.09;61.26;100939.56;5068995;28;20036;-48
2023/01/21 05:53:27;;;;;;;6.32;2.28;;;;;;;-0.12;60.90;100936.06;5068890;28;20504;-47
2023/01/21 05:55:54;;;;;;;9.52;2.17;;;;;;;-0.20;60.93;100925.59;5075593;28;20048;-47
2023/01/21 05:58:21;;;;;;;8.57;1.92;;;;;;;-0.18;61.06;100931.63;5073739;28;20063;-48
2023/01/21 06:00:47;;;;;;;7.38;1.67;;;;;;;-0.14;61.03;100938.56;5087184;28;20048;-49
2023/01/21 06:03:14;;;;;;;9.35;2.13;;;;;;;-0.14;61.03;100930.91;5086264;28;20145;-47
2023/01/21 06:05:40;;;;;;;8.20;2.28;;;;;;;-0.17;60.93;100943.59;5088509;28;20117;-49
2023/01/21 06:08:07;;;;;;;8.00;2.25;;;;;;;-0.21;60.80;100938.34;5082871;28;20045;-48
2023/01/21 06:10:33;;;;;;;8.63;2.17;;;;;;;-0.19;60.94;100942.69;5075879;28;20067;-50
2023/01/21 06:12:59;;;;;;;10.18;2.40;;;;;;;-0.21;60.89;100941.75;5080784;28;20029;-47
2023/01/21 06:15:25;;;;;;;4.53;1.80;;;;;;;-0.37;60.80;100910.63;5081845;28;20052;-46
2023/01/21 06:17:51;;;;;;;8.60;2.58;;;;;;;-0.25;60.93;100937.38;5082414;28;20036;-50
2023/01/21 06:20:17;;;;;;;3.97;1.80;;;;;;;-0.25;60.63;100944.19;5081436;28;20039;-51
2023/01/21 06:22:43;;;;;;;7.72;2.25;;;;;;;-0.28;60.35;100939.00;5090703;28;20044;-47
2023/01/21 06:25:10;;;;;;;7.80;2.47;;;;;;;-0.30;60.67;100946.59;5083538;28;20035;-46
2023/01/21 06:27:37;;;;;;;7.00;2.80;;;;;;;-0.31;60.44;100944.88;5085200;28;20122;-51
2023/01/21 06:30:05;;;;;;;11.45;2.78;;;;;;;-0.28;60.53;100951.75;5090532;28;20489;-49
2023/01/21 06:32:31;;;;;;;5.90;2.80;;;;;;;-0.25;60.54;100946.72;5071491;28;20036;-49
2023/01/21 06:34:57;;;;;;;5.00;2.10;;;;;;;-0.18;60.64;100949.53;5091330;28;20126;-52
2023/01/21 06:37:23;;;;;;;4.40;2.03;;;;;;;-0.13;60.19;100942.84;5072423;28;20525;-47
2023/01/21 06:39:49;;;;;;;13.30;3.30;;;;;;;-0.11;59.99;100955.69;5071214;28;20044;-50
2023/01/21 06:42:16;;;;;;;8.00;2.92;;;;;;;-0.11;60.08;100965.91;5091068;28;20419;-48
2023/01/21 06:44:43;;;;;;;7.75;2.63;;;;;;;-0.52;59.65;100895.69;5092743;28;20047;-50
2023/01/21 06:47:09;;;;;;;9.90;2.80;;;;;;;-0.10;59.74;100973.59;5082338;28;20036;-48
2023/01/21 06:49:35;;;;;;;6.70;2.65;;;;;;;-0.25;59.67;100939.06;5073598;28;20042;-50
2023/01/21 06:52:01;;;;;;;11.82;2.70;;;;;;;-0.08;59.97;100973.66;5090765;28;20036;-47
2023/01/21 06:54:27;;;;;;;5.63;2.75;;;;;;;-0.09;59.24;100977.03;5085885;28;20052;-47
2023/01/21 06:56:53;;;;;;;4.72;2.25;;;;;;;-0.08;59.36;100973.66;5080734;28;20579;-47
2023/01/21 06:59:19;;;;;;;8.57;2.97;;;;;;;-0.08;59.28;100979.63;5088442;28;20726;-51
2023/01/21 07:01:44;;;;;;;7.13;2.10;;;;;;;-0.17;59.08;100961.50;5090556;28;20036;-49
2023/01/21 07:04:10;;;;;;;4.63;2.45;;;;;;;0.01;58.98;100984.13;5091801;28;20043;-50
2023/01/21 07:06:37;;;;;;;7.00;2.60;;;;;;;-0.04;58.81;100995.91;5091885;28;20043;-50
2023/01/21 07:09:04;;;;;;;5.68;2.38;;;;;;;0.00;59.17;101000.31;5073673;28;20040;-48
2023/01/21 07:11:30;;;;;;;18.13;4.35;;;;;;;0.00;58.94;100992.66;5082274;28;20036;-49
2023/01/21 07:13:56;;;;;;;7.35;2.13;;;;;;;0.07;58.99;101006.47;5075877;28;20049;-47
2023/01/21 07:16:23;;;;;;;7.38;2.63;;;;;;;-0.03;58.37;101007.88;5070813;28;20119;-49
2023/01/21 07:18:48;;;;;;;9.25;3.53;;;;;;;0.00;58.48;100996.06;5091819;28;20044;-48
2023/01/21 07:21:15;;;;;;;5.15;2.58;;;;;;;0.12;58.52;100995.53;5091660;28;20512;-47
2023/01/21 07:23:40;;;;;;;6.43;2.75;;;;;;;0.17;57.98;100998.22;5065692;28;20059;-48
2023/01/21 07:26:07;;;;;;;4.85;2.30;;;;;;;0.18;58.04;101000.84;5084032;28;20606;-48
2023/01/21 07:28:32;;;;;;;7.55;2.28;;;;;;;0.26;57.99;101012.13;5081662;28;20040;-49
2023/01/21 07:30:59;;;;;;;5.13;2.40;;;;;;;0.35;57.90;101020.09;5083911;28;20498;-46
2023/01/21 07:33:25;;;;;;;8.50;2.63;;;;;;;0.26;57.61;101021.53;5080092;28;20043;-52
2023/01/21 07:35:51;;;;;;;4.72;2.50;;;;;;;0.06;57.45;100994.50;5082864;28;20118;-48
2023/01/21 07:38:17;;;;;;;6.82;2.53;;;;;;;-0.09;57.79;100965.13;5082848;28;20533;-51
2023/01/21 07:40:43;;;;;;;5.05;2.30;;;;;;;0.19;57.54;101017.06;5084394;28;20048;-50
2023/01/21 07:43:09;;;;;;;5.15;2.15;;;;;;;0.10;57.48;101006.56;5080308;28;20119;-48
2023/01/21 07:45:35;;;;;;;6.13;2.60;;;;;;;-0.05;57.30;100991.63;5081714;28;20059;-47
2023/01/21 07:48:01;;;;;;;5.70;2.70;;;;;;;0.19;57.25;101014.50;5081728;28;20036;-47
2023/01/21 07:50:27;;;;;;;7.25;2.97;;;;;;;0.21;57.20;101023.94;5075475;28;20059;-48
2023/01/21 07:52:53;;;;;;;5.43;2.35;;;;;;;0.22;57.25;101025.66;5063881;28;20051;-49
2023/01/21 07:55:19;;;;;;;9.38;2.42;;;;;;;0.21;56.89;101026.47;5085863;28;20135;-53
2023/01/21 07:57:45;;;;;;;8.57;2.70;;;;;;;0.29;56.70;101026.72;5095318;28;20519;-46
2023/01/21 08:00:12;;;;;;;5.78;2.70;;;;;;;0.21;56.71;101006.03;5078015;28;20040;-45
2023/01/21 08:02:38;;;;;;;7.53;3.00;;;;;;;0.46;56.94;101033.19;5049221;28;20048;-47
2023/01/21 08:05:06;;;;;;;5.25;2.72;;;;;;;0.70;57.00;101035.53;5085331;28;20040;-48
2023/01/21 08:07:32;;;;;;;9.32;2.72;;;;;;;0.72;56.58;101036.44;5077689;28;20044;-46
2023/01/21 08:09:58;;;;;;;12.32;3.33;;;;;;;0.92;56.45;101036.97;5075781;28;20041;-58
2023/01/21 08:12:24;;;;;;;10.25;3.10;;;;;;;1.02;56.38;101039.81;5073707;28;20467;-54
2023/01/21 08:14:50;;;;;;;7.47;2.70;;;;;;;1.03;55.94;101023.63;5080905;28;20096;-56
2023/01/21 08:17:15;;;;;;;7.45;2.97;;;;;;;1.05;55.45;101046.69;5074153;28;20048;-53
2023/01/21 08:19:41;;;;;;;4.65;2.40;;;;;;;1.03;55.59;101035.56;5080170;28;20068;-50
2023/01/21 08:22:07;;;;;;;5.05;2.45;;;;;;;1.07;55.44;101040.81;5061070;28;20044;-57
2023/01/21 08:24:33;;;;;;;5.63;2.60;;;;;;;1.04;55.71;101011.69;5085258;28;20036;-54
2023/01/21 08:26:59;;;;;;;5.07;2.70;;;;;;;1.21;55.21;101043.69;5085257;28;20028;-58
2023/01/21 08:29:26;;;;;;;5.88;2.50;;;;;;;1.09;54.75;101041.72;5085520;28;20514;-43
2023/01/21 08:31:52;;;;;;;5.18;2.50;;;;;;;0.99;54.76;101038.88;5085129;28;20489;-61
2023/01/21 08:34:18;;;;;;;8.07;2.85;;;;;;;1.02;55.06;101038.94;5087446;28;20081;-57
2023/01/21 08:36:44;;;;;;;8.80;3.10;;;;;;;1.17;55.13;101037.63;5081851;28;20050;-52
2023/01/21 08:39:12;;;;;;;8.63;3.20;;;;;;;1.34;54.75;101044.88;5073352;28;20051;-53
2023/01/21 08:41:39;;;;;;;9.55;2.95;;;;;;;1.45;54.64;101036.63;5087181;28;20534;-52
2023/01/21 08:44:06;;;;;;;6.97;3.03;;;;;;;1.21;54.27;101018.94;5087973;28;20512;-51
2023/01/21 08:46:32;;;;;;;11.45;2.97;;;;;;;1.48;54.36;101030.69;5085050;28;20044;-43
2023/01/21 08:48:58;;;;;;;7.25;2.63;;;;;;;1.42;54.10;100997.22;5082749;28;20996;-47
2023/01/21 08:51:24;;;;;;;12.48;2.95;;;;;;;1.47;53.78;101055.44;5089105;28;20400;-46
2023/01/21 08:53:50;;;;;;;11.75;2.60;;;;;;;1.25;53.57;101040.41;5069079;28;20085;-51
2023/01/21 08:56:17;;;;;;;5.82;2.40;;;;;;;1.33;53.43;101041.44;5083343;28;20508;-51
2023/01/21 08:58:43;;;;;;;5.28;2.35;;;;;;;1.44;53.38;101042.59;5075772;28;20127;-48
2023/01/21 09:01:11;;;;;;;8.15;2.90;;;;;;;1.45;53.04;101044.31;5077840;28;20139;-50
2023/01/21 09:03:37;;;;;;;6.75;3.03;;;;;;;1.59;53.31;101030.13;5088890;28;20036;-49
2023/01/21 09:06:04;;;;;;;6.03;2.70;;;;;;;1.85;53.10;101034.97;5095253;28;20067;-49
2023/01/21 09:08:30;;;;;;;13.10;3.13;;;;;;;2.02;52.97;101044.78;5099995;28;20269;-49
2023/01/21 09:11:00;;;;;;;9.27;3.05;;;;;;;2.00;52.90;101049.00;5092814;28;20117;-53
2023/01/21 09:13:29;;;;;;;9.48;3.38;;;;;;;1.98;52.46;101039.56;5088572;28;20126;-51
2023/01/21 09:15:55;;;;;;;6.97;2.95;;;;;;;1.93;52.50;101039.47;5077431;28;20050;-53
2023/01/21 09:18:21;;;;;;;7.78;2.70;;;;;;;1.85;52.42;101042.66;5068803;28;20045;-50
2023/01/21 09:20:47;;;;;;;8.27;2.97;;;;;;;1.67;52.32;101033.72;5073325;28;20044;-52
2023/01/21 09:23:25;;;;;;;12.63;3.13;;;;;;;1.81;52.33;101046.00;5083225;28;20096;-53
2023/01/21 09:25:59;;;;;;;6.72;2.63;;;;;;;1.85;52.47;101046.09;5085503;28;20036;-51
2023/01/21 09:28:25;;;;;;;8.88;2.85;;;;;;;1.69;51.71;101049.16;5075307;28;20586;-51
2023/01/21 09:30:55;;;;;;;10.75;2.90;;;;;;;1.55;51.76;101033.47;5087085;28;20127;-47
2023/01/21 09:33:21;;;;;;;7.05;2.78;;;;;;;1.62;52.54;101037.03;5075680;28;20032;-48
2023/01/21 09:35:55;;;;;;;8.50;3.10;;;;;;;1.84;52.22;101043.50;5082672;28;20497;-48
2023/01/21 09:38:21;;;;;;;6.43;3.03;;;;;;;2.01;52.07;101053.31;5066781;28;20116;-52
2023/01/21 09:40:47;;;;;;;10.40;2.70;;;;;;;1.90;52.04;101026.56;5086992;28;20043;-50
2023/01/21 09:43:26;;;;;;;14.00;2.72;;;;;;;1.91;51.54;101053.94;5087309;28;20040;-51
2023/01/21 09:45:56;;;;;;;7.68;2.85;;;;;;;1.83;51.60;101044.34;5082798;28;20127;-50
2023/01/21 09:48:30;;;;;;;10.55;3.20;;;;;;;2.03;51.71;101051.66;5084903;28;20044;-50
2023/01/21 09:50:59;;;;;;;9.30;3.00;;;;;;;2.19;51.37;101050.28;5071014;28;20135;-50
2023/01/21 09:53:44;;;;;;;6.78;2.50;;;;;;;2.04;50.94;101053.38;5067423;28;20539;-50
2023/01/21 09:56:19;;;;;;;7.78;3.15;;;;;;;1.82;51.01;101043.47;5080982;28;20040;-49
2023/01/21 09:58:51;;;;;;;6.93;2.70;;;;;;;1.88;51.30;101051.31;5079823;28;20047;-49
2023/01/21 10:01:25;;;;;;;7.72;2.63;;;;;;;1.64;51.18;101015.72;5065766;28;20075;-48
2023/01/21 10:03:55;;;;;;;10.93;2.95;;;;;;;1.86;51.11;101041.84;5057074;28;20047;-47
2023/01/21 10:06:27;;;;;;;6.97;2.70;;;;;;;1.41;50.67;100978.47;5083990;28;20142;-48
2023/01/21 10:09:18;;;;;;;9.80;2.85;;;;;;;1.70;50.75;101038.06;5088517;28;20128;-52
2023/01/21 10:12:09;;;;;;;6.10;2.58;;;;;;;1.53;51.09;101040.22;5087679;28;20062;-51
2023/01/21 10:15:13;;;;;;;4.38;2.00;;;;;;;1.37;50.94;101033.00;5084336;28;20052;-46
2023/01/21 10:17:39;;;;;;;7.25;2.97;;;;;;;1.47;51.22;101034.09;5074504;28;20042;-49
2023/01/21 10:20:15;;;;;;;6.65;3.13;;;;;;;1.62;51.20;101037.03;5078825;28;20024;-51
2023/01/21 10:22:56;;;;;;;5.13;2.28;;;;;;;1.54;50.95;101033.41;5032731;28;20074;-49
2023/01/21 10:25:32;;;;;;;5.38;2.05;;;;;;;1.24;51.09;101038.66;5064947;28;20091;-52
2023/01/21 10:28:08;;;;;;;6.35;2.78;;;;;;;1.24;51.30;101030.97;5076362;28;20490;-49
2023/01/21 10:30:37;;;;;;;6.10;2.65;;;;;;;1.42;51.48;101022.84;5085750;28;20750;-47
2023/01/21 10:33:05;;;;;;;13.68;2.85;;;;;;;1.57;51.00;101033.50;5085432;28;20047;-47
2023/01/21 10:36:00;;;;;;;7.32;2.38;;;;;;;1.51;50.85;101023.09;5079098;28;20097;-47
2023/01/21 10:38:54;;;;;;;9.52;2.35;;;;;;;1.28;50.83;101027.66;5075763;28;20094;-47
2023/01/21 10:41:38;;;;;;;5.75;2.40;;;;;;;1.32;50.91;101024.34;5087032;28;20127;-47
2023/01/21 10:44:14;;;;;;;8.75;2.47;;;;;;;1.33;50.96;101032.91;5087222;28;20028;-47
2023/01/21 10:46:49;;;;;;;10.75;2.70;;;;;;;1.32;51.00;101021.78;5070403;28;20248;-50
2023/01/21 10:49:33;;;;;;;7.68;2.75;;;;;;;1.41;51.50;101019.47;5087665;28;20036;-49
2023/01/21 10:52:44;;;;;;;5.25;2.70;;;;;;;1.58;51.10;101019.81;5087528;28;20064;-51
2023/01/21 10:55:30;;;;;;;7.40;2.85;;;;;;;1.70;51.10;101021.00;5061155;28;20109;-49
2023/01/21 10:58:04;;;;;;;6.40;2.28;;;;;;;1.76;51.03;101022.81;5082743;28;20539;-49
2023/01/21 11:00:36;;;;;;;8.13;2.42;;;;;;;1.59;50.74;101014.75;5087149;28;20040;-46
2023/01/21 11:03:25;;;;;;;7.55;2.90;;;;;;;1.43;50.85;101006.66;5083187;28;20076;-50
2023/01/21 11:05:51;;;;;;;6.13;2.42;;;;;;;1.54;50.72;101011.22;5068581;28;20107;-48
2023/01/21 11:08:22;;;;;;;6.18;2.65;;;;;;;1.42;50.52;101012.59;5079400;28;20056;-47
2023/01/21 11:10:54;;;;;;;14.00;2.63;;;;;;;1.36;51.14;101007.38;5067946;28;20041;-50
2023/01/21 11:13:20;;;;;;;7.85;2.50;;;;;;;1.02;50.69;100944.19;5083363;28;20036;-47
2023/01/21 11:15:50;;;;;;;8.93;3.25;;;;;;;1.47;50.97;101000.78;5039431;28;20177;-49
2023/01/21 11:18:45;;;;;;;6.10;2.75;;;;;;;1.44;50.92;100999.03;5069787;28;20047;-48
2023/01/21 11:21:22;;;;;;;8.77;3.53;;;;;;;1.48;51.16;100998.25;5032888;28;20581;-50
2023/01/21 11:23:59;;;;;;;6.43;2.47;;;;;;;1.32;50.84;100993.59;5084020;28;20044;-48
2023/01/21 11:26:31;;;;;;;8.18;3.78;;;;;;;1.17;51.29;100965.94;5072413;28;20072;-50
2023/01/21 11:29:06;;;;;;;14.82;5.22;;;;;;;1.48;51.68;100998.25;5070033;28;20118;-51
2023/01/21 11:31:32;;;;;;;14.70;5.45;;;;;;;1.55;52.00;101001.84;5071356;28;20082;-48
2023/01/21 11:34:19;;;;;;;10.70;3.97;;;;;;;1.53;52.54;101006.03;5085251;28;20043;-53
2023/01/21 11:36:54;;;;;;;12.02;4.57;;;;;;;1.51;52.48;101008.59;5089674;28;20503;-52
2023/01/21 11:39:23;;;;;;;13.43;4.57;;;;;;;1.46;52.63;101012.75;5073229;28;20499;-46
2023/01/21 11:41:53;;;;;;;9.48;4.63;;;;;;;1.45;52.88;101005.00;5088668;28;20462;-54
2023/01/21 11:44:21;;;;;;;10.05;4.68;;;;;;;1.48;52.85;101010.19;5070202;28;20102;-52